createdAt,value
2017-07-30T00:00:55.670Z,78.56
2017-07-30T00:02:00.598Z,78.15
2017-07-30T00:03:05.257Z,78.08
2017-07-30T00:04:10.194Z,78.33
2017-07-30T00:05:15.120Z,78.23
2017-07-30T00:06:20.047Z,78.35
2017-07-30T00:07:29.007Z,78.51
2017-07-30T00:08:33.969Z,78.44
2017-07-30T00:09:38.905Z,78.35
2017-07-30T00:10:43.901Z,78.64
2017-07-30T00:11:48.864Z,78.58
2017-07-30T00:12:53.782Z,78.88
2017-07-30T00:13:58.759Z,78.74
2017-07-30T00:15:03.690Z,78.26
2017-07-30T00:16:09.549Z,78.02
2017-07-30T00:17:14.477Z,77.84
2017-07-30T00:18:19.402Z,77.81
2017-07-30T00:19:24.350Z,77.70
2017-07-30T00:20:29.287Z,77.38
2017-07-30T00:21:34.202Z,78.34
2017-07-30T00:22:39.145Z,78.34
2017-07-30T00:23:44.080Z,78.29
2017-07-30T00:24:49.947Z,78.70
2017-07-30T00:25:54.873Z,78.80
2017-07-30T00:26:59.803Z,78.99
2017-07-30T00:28:04.003Z,78.58
2017-07-30T00:29:08.921Z,78.56
2017-07-30T00:30:13.965Z,78.43
2017-07-30T00:31:18.885Z,78.44
2017-07-30T00:32:23.816Z,77.99
2017-07-30T00:33:28.745Z,77.85
2017-07-30T00:34:33.659Z,77.64
2017-07-30T00:35:37.902Z,77.37
2017-07-30T00:36:42.836Z,77.41
2017-07-30T00:37:47.762Z,77.77
2017-07-30T00:38:52.684Z,78.40
2017-07-30T00:39:57.598Z,78.40
2017-07-30T00:41:02.554Z,78.58
2017-07-30T00:42:07.468Z,78.67
2017-07-30T00:43:12.483Z,78.45
2017-07-30T00:44:18.301Z,78.50
2017-07-30T00:45:23.226Z,79.05
2017-07-30T00:46:28.166Z,79.22
2017-07-30T00:47:33.092Z,78.46
2017-07-30T00:48:38.026Z,77.87
2017-07-30T00:49:42.952Z,77.43
2017-07-30T00:50:47.875Z,77.23
2017-07-30T00:51:52.809Z,77.46
2017-07-30T00:52:57.739Z,77.37
2017-07-30T00:54:02.663Z,77.44
2017-07-30T00:55:07.587Z,77.35
2017-07-30T00:56:12.582Z,77.39
2017-07-30T00:57:17.539Z,77.51
2017-07-30T00:58:22.462Z,78.25
2017-07-30T00:59:27.379Z,78.20
2017-07-30T01:00:32.305Z,78.61
2017-07-30T01:01:37.225Z,78.65
2017-07-30T01:02:42.174Z,78.95
2017-07-30T01:03:47.103Z,79.05
2017-07-30T01:04:52.009Z,78.84
2017-07-30T01:05:56.921Z,78.87
2017-07-30T01:07:01.866Z,78.65
2017-07-30T01:08:06.822Z,78.51
2017-07-30T01:09:11.789Z,77.89
2017-07-30T01:10:16.794Z,77.79
2017-07-30T01:11:21.730Z,77.72
2017-07-30T01:12:26.646Z,77.62
2017-07-30T01:13:32.499Z,77.29
2017-07-30T01:14:37.441Z,77.35
2017-07-30T01:15:42.365Z,77.65
2017-07-30T01:16:47.291Z,77.88
2017-07-30T01:17:52.209Z,77.89
2017-07-30T01:18:57.154Z,78.07
2017-07-30T01:20:01.725Z,78.53
2017-07-30T01:21:06.640Z,78.75
2017-07-30T01:22:11.552Z,78.68
2017-07-30T01:23:16.469Z,79.12
2017-07-30T01:24:21.437Z,79.36
2017-07-30T01:25:25.986Z,79.61
2017-07-30T01:26:30.914Z,79.75
2017-07-30T01:27:35.838Z,79.61
2017-07-30T01:28:40.789Z,79.53
2017-07-30T01:29:45.739Z,79.81
2017-07-30T01:30:50.672Z,79.87
2017-07-30T01:31:55.599Z,79.75
2017-07-30T01:33:00.524Z,79.95
2017-07-30T01:34:05.457Z,80.24
2017-07-30T01:35:10.417Z,80.56
2017-07-30T01:36:15.333Z,79.99
2017-07-30T01:37:19.930Z,80.14
2017-07-30T01:38:24.854Z,80.20
2017-07-30T01:39:29.402Z,80.13
2017-07-30T01:40:34.362Z,80.43
2017-07-30T01:41:39.284Z,80.43
2017-07-30T01:42:44.245Z,80.25
2017-07-30T01:43:49.169Z,80.00
2017-07-30T01:44:54.078Z,80.46
2017-07-30T01:45:59.032Z,80.40
2017-07-30T01:47:03.959Z,79.73
2017-07-30T01:48:08.870Z,79.22
2017-07-30T01:49:13.453Z,79.17
2017-07-30T01:50:17.722Z,79.95
2017-07-30T01:51:22.302Z,80.16
2017-07-30T01:52:26.843Z,79.76
2017-07-30T01:53:32.663Z,79.77
2017-07-30T01:54:38.101Z,80.06
2017-07-30T01:55:43.033Z,80.08
2017-07-30T01:56:47.985Z,80.90
2017-07-30T01:57:52.891Z,81.27
2017-07-30T01:58:57.810Z,81.25
2017-07-30T02:00:02.374Z,81.10
2017-07-30T02:01:06.942Z,81.51
2017-07-30T02:02:14.204Z,81.31
2017-07-30T02:03:19.458Z,81.17
2017-07-30T02:04:24.391Z,81.29
2017-07-30T02:05:29.313Z,81.07
2017-07-30T02:06:34.230Z,81.09
2017-07-30T02:07:39.179Z,80.69
2017-07-30T02:08:44.098Z,80.42
2017-07-30T02:09:49.036Z,80.54
2017-07-30T02:10:53.953Z,80.51
2017-07-30T02:11:58.866Z,80.33
2017-07-30T02:13:03.828Z,80.31
2017-07-30T02:14:08.775Z,80.32
2017-07-30T02:15:13.703Z,80.23
2017-07-30T02:16:18.696Z,80.53
2017-07-30T02:17:23.613Z,81.26
2017-07-30T02:18:28.557Z,81.38
2017-07-30T02:19:33.473Z,81.66
2017-07-30T02:20:38.030Z,81.78
2017-07-30T02:21:42.608Z,81.66
2017-07-30T02:22:47.534Z,81.76
2017-07-30T02:23:52.509Z,81.89
2017-07-30T02:24:57.429Z,82.15
2017-07-30T02:26:02.350Z,82.48
2017-07-30T02:27:07.316Z,82.72
2017-07-30T02:28:12.246Z,82.22
2017-07-30T02:29:17.185Z,82.04
2017-07-30T02:30:21.724Z,82.20
2017-07-30T02:31:26.651Z,82.30
2017-07-30T02:32:31.566Z,82.33
2017-07-30T02:33:36.486Z,82.47
2017-07-30T02:34:41.431Z,82.72
2017-07-30T02:35:46.354Z,82.52
2017-07-30T02:36:51.279Z,82.85
2017-07-30T02:37:56.201Z,83.00
2017-07-30T02:39:01.129Z,83.05
2017-07-30T02:40:06.089Z,83.07
2017-07-30T02:41:11.020Z,83.30
2017-07-30T02:42:15.939Z,83.41
2017-07-30T02:43:20.882Z,83.17
2017-07-30T02:44:31.138Z,83.53
2017-07-30T02:45:36.075Z,83.36
2017-07-30T02:46:40.977Z,83.20
2017-07-30T02:47:45.893Z,83.39
2017-07-30T02:48:50.818Z,83.09
2017-07-30T02:49:58.758Z,82.83
2017-07-30T02:51:03.747Z,82.84
2017-07-30T02:52:08.674Z,83.22
2017-07-30T02:53:13.581Z,83.41
2017-07-30T02:54:18.586Z,83.52
2017-07-30T02:55:23.510Z,83.68
2017-07-30T02:56:28.470Z,83.82
2017-07-30T02:57:33.381Z,83.70
2017-07-30T02:58:38.297Z,83.84
2017-07-30T02:59:43.233Z,83.76
2017-07-30T03:00:48.165Z,84.16
2017-07-30T03:01:53.121Z,83.90
2017-07-30T03:02:58.949Z,83.61
2017-07-30T03:04:03.863Z,83.65
2017-07-30T03:05:08.780Z,83.45
2017-07-30T03:06:13.713Z,83.24
2017-07-30T03:07:18.798Z,83.39
2017-07-30T03:08:23.719Z,83.56
2017-07-30T03:09:28.642Z,83.27
2017-07-30T03:10:33.641Z,82.73
2017-07-30T03:11:38.556Z,82.77
2017-07-30T03:12:43.493Z,82.58
2017-07-30T03:13:48.406Z,82.73
2017-07-30T03:14:53.341Z,82.50
2017-07-30T03:15:58.253Z,82.41
2017-07-30T03:17:03.184Z,82.65
2017-07-30T03:18:08.153Z,82.83
2017-07-30T03:19:13.070Z,83.19
2017-07-30T03:20:18.053Z,83.37
2017-07-30T03:21:22.987Z,83.80
2017-07-30T03:22:27.901Z,84.16
2017-07-30T03:23:32.853Z,84.26
2017-07-30T03:24:38.694Z,83.96
2017-07-30T03:25:43.604Z,84.51
2017-07-30T03:26:48.536Z,84.57
2017-07-30T03:27:56.263Z,84.26
2017-07-30T03:29:01.227Z,84.61
2017-07-30T03:30:06.160Z,84.23
2017-07-30T03:31:11.094Z,84.27
2017-07-30T03:32:16.016Z,84.50
2017-07-30T03:33:20.930Z,84.61
2017-07-30T03:34:25.921Z,84.33
2017-07-30T03:35:30.843Z,84.00
2017-07-30T03:36:35.780Z,84.08
2017-07-30T03:37:40.696Z,84.64
2017-07-30T03:38:45.626Z,84.87
2017-07-30T03:39:50.574Z,84.72
2017-07-30T03:40:55.502Z,84.86
2017-07-30T03:42:00.414Z,84.62
2017-07-30T03:43:05.324Z,84.23
2017-07-30T03:44:10.245Z,84.09
2017-07-30T03:45:15.201Z,84.15
2017-07-30T03:46:20.113Z,84.46
2017-07-30T03:47:25.033Z,84.55
2017-07-30T03:48:29.602Z,84.41
2017-07-30T03:49:34.529Z,84.53
2017-07-30T03:50:39.462Z,84.70
2017-07-30T03:51:44.396Z,84.65
2017-07-30T03:52:49.323Z,84.29
2017-07-30T03:53:54.263Z,83.91
2017-07-30T03:54:59.173Z,84.19
2017-07-30T03:56:04.131Z,84.07
2017-07-30T03:57:09.059Z,84.03
2017-07-30T03:58:13.979Z,84.22
2017-07-30T03:59:18.977Z,84.17
2017-07-30T04:00:23.897Z,84.03
2017-07-30T04:01:28.857Z,83.88
2017-07-30T04:02:33.774Z,83.94
2017-07-30T04:03:38.698Z,83.59
2017-07-30T04:04:43.609Z,83.97
2017-07-30T04:05:48.541Z,84.34
2017-07-30T04:06:59.544Z,84.45
2017-07-30T04:08:04.453Z,84.51
2017-07-30T04:09:09.022Z,84.11
2017-07-30T04:10:14.021Z,84.29
2017-07-30T04:11:19.012Z,84.07
2017-07-30T04:12:23.958Z,84.21
2017-07-30T04:13:28.873Z,84.15
2017-07-30T04:14:33.801Z,83.69
2017-07-30T04:15:38.753Z,84.13
2017-07-30T04:16:43.683Z,84.25
2017-07-30T04:17:48.639Z,83.79
2017-07-30T04:18:53.550Z,84.25
2017-07-30T04:19:59.977Z,84.61
2017-07-30T04:21:04.920Z,84.09
2017-07-30T04:22:09.834Z,83.88
2017-07-30T04:23:14.818Z,84.19
2017-07-30T04:24:19.758Z,84.30
2017-07-30T04:25:24.684Z,84.88
2017-07-30T04:26:29.598Z,84.82
2017-07-30T04:27:34.529Z,84.34
2017-07-30T04:28:39.499Z,83.89
2017-07-30T04:29:44.413Z,83.47
2017-07-30T04:30:49.351Z,83.02
2017-07-30T04:31:54.320Z,82.79
2017-07-30T04:32:59.240Z,82.85
2017-07-30T04:34:04.210Z,82.77
2017-07-30T04:35:09.133Z,82.70
2017-07-30T04:36:14.058Z,83.16
2017-07-30T04:37:19.061Z,83.52
2017-07-30T04:38:23.995Z,83.58
2017-07-30T04:39:28.962Z,83.41
2017-07-30T04:40:34.773Z,83.05
2017-07-30T04:41:39.677Z,82.74
2017-07-30T04:42:44.602Z,82.44
2017-07-30T04:43:49.509Z,81.99
2017-07-30T04:44:55.855Z,82.01
2017-07-30T04:46:03.586Z,81.25
2017-07-30T04:47:08.505Z,81.58
2017-07-30T04:48:13.418Z,81.11
2017-07-30T04:49:18.414Z,80.36
2017-07-30T04:50:23.379Z,80.22
2017-07-30T04:51:28.292Z,79.73
2017-07-30T04:52:33.202Z,79.54
2017-07-30T04:53:38.114Z,79.44
2017-07-30T04:54:43.035Z,79.64
2017-07-30T04:55:48.010Z,79.64
2017-07-30T04:56:52.951Z,79.77
2017-07-30T04:57:57.873Z,79.18
2017-07-30T04:59:02.784Z,79.22
2017-07-30T05:00:07.693Z,79.48
2017-07-30T05:01:12.654Z,79.80
2017-07-30T05:02:17.563Z,79.26
2017-07-30T05:03:23.377Z,78.80
2017-07-30T05:04:28.298Z,78.37
2017-07-30T05:05:33.206Z,78.04
2017-07-30T05:06:38.150Z,77.52
2017-07-30T05:07:43.074Z,77.59
2017-07-30T05:08:48.002Z,77.86
2017-07-30T05:09:52.925Z,78.06
2017-07-30T05:10:57.858Z,77.97
2017-07-30T05:12:02.812Z,78.07
2017-07-30T05:13:08.025Z,78.03
2017-07-30T05:14:12.938Z,77.95
2017-07-30T05:15:17.861Z,78.22
2017-07-30T05:16:22.764Z,77.72
2017-07-30T05:17:27.730Z,76.97
2017-07-30T05:18:32.655Z,77.13
2017-07-30T05:19:37.585Z,77.01
2017-07-30T05:20:42.598Z,77.26
2017-07-30T05:21:47.527Z,77.19
2017-07-30T05:22:52.499Z,77.05
2017-07-30T05:23:58.351Z,76.88
2017-07-30T05:25:03.265Z,76.60
2017-07-30T05:26:08.173Z,76.75
2017-07-30T05:27:13.096Z,76.76
2017-07-30T05:28:18.066Z,76.47
2017-07-30T05:29:22.990Z,76.21
2017-07-30T05:30:27.928Z,76.37
2017-07-30T05:31:32.840Z,76.18
2017-07-30T05:32:37.759Z,75.94
2017-07-30T05:33:42.706Z,76.06
2017-07-30T05:34:47.651Z,75.96
2017-07-30T05:35:52.588Z,75.63
2017-07-30T05:36:57.499Z,75.83
2017-07-30T05:38:02.226Z,75.70
2017-07-30T05:39:07.182Z,75.55
2017-07-30T05:40:12.106Z,75.34
2017-07-30T05:41:17.021Z,75.26
2017-07-30T05:42:22.012Z,75.20
2017-07-30T05:43:26.929Z,75.60
2017-07-30T05:44:31.896Z,75.89
2017-07-30T05:45:36.804Z,75.52
2017-07-30T05:46:41.713Z,75.29
2017-07-30T05:47:46.614Z,76.01
2017-07-30T05:48:51.538Z,75.98
2017-07-30T05:49:57.420Z,75.91
2017-07-30T05:51:02.331Z,75.61
2017-07-30T05:52:07.245Z,75.25
2017-07-30T05:53:13.066Z,75.45
2017-07-30T05:54:17.969Z,75.35
2017-07-30T05:55:29.003Z,75.04
2017-07-30T05:56:33.916Z,74.66
2017-07-30T05:57:38.830Z,75.41
2017-07-30T05:58:43.747Z,75.09
2017-07-30T05:59:48.661Z,75.55
2017-07-30T06:00:53.595Z,75.35
2017-07-30T06:01:58.531Z,75.27
2017-07-30T06:03:03.074Z,75.25
2017-07-30T06:04:07.998Z,75.09
2017-07-30T06:05:12.908Z,75.31
2017-07-30T06:06:17.882Z,75.75
2017-07-30T06:07:22.894Z,75.70
2017-07-30T06:08:27.944Z,75.33
2017-07-30T06:09:32.861Z,74.93
2017-07-30T06:10:37.809Z,74.73
2017-07-30T06:11:42.773Z,74.69
2017-07-30T06:12:47.677Z,74.44
2017-07-30T06:13:52.594Z,74.21
2017-07-30T06:14:57.523Z,74.33
2017-07-30T06:16:02.462Z,73.90
2017-07-30T06:17:07.417Z,73.81
2017-07-30T06:18:12.321Z,73.70
2017-07-30T06:19:17.389Z,73.59
2017-07-30T06:20:22.346Z,73.41
2017-07-30T06:21:28.082Z,73.38
2017-07-30T06:22:33.031Z,73.26
2017-07-30T06:23:38.002Z,73.26
2017-07-30T06:24:42.917Z,73.30
2017-07-30T06:25:47.847Z,73.31
2017-07-30T06:26:52.785Z,73.76
2017-07-30T06:27:57.726Z,73.42
2017-07-30T06:29:02.682Z,73.42
2017-07-30T06:30:07.234Z,73.22
2017-07-30T06:31:12.162Z,73.05
2017-07-30T06:32:17.074Z,73.06
2017-07-30T06:33:25.178Z,72.94
2017-07-30T06:34:30.095Z,72.82
2017-07-30T06:35:35.047Z,72.90
2017-07-30T06:36:39.999Z,73.02
2017-07-30T06:37:44.908Z,72.89
2017-07-30T06:38:49.867Z,72.72
2017-07-30T06:39:54.775Z,72.55
2017-07-30T06:40:59.702Z,72.36
2017-07-30T06:42:04.612Z,72.19
2017-07-30T06:43:09.505Z,72.17
2017-07-30T06:44:14.471Z,71.82
2017-07-30T06:45:19.384Z,71.43
2017-07-30T06:46:24.368Z,71.15
2017-07-30T06:47:29.278Z,71.12
2017-07-30T06:48:34.201Z,71.46
2017-07-30T06:49:39.161Z,71.77
2017-07-30T06:50:44.988Z,71.63
2017-07-30T06:51:49.915Z,71.41
2017-07-30T06:52:54.853Z,71.75
2017-07-30T06:53:59.781Z,71.58
2017-07-30T06:55:04.746Z,71.10
2017-07-30T06:56:09.668Z,71.42
2017-07-30T06:57:14.594Z,71.12
2017-07-30T06:58:19.511Z,70.98
2017-07-30T06:59:24.522Z,70.90
2017-07-30T07:00:29.460Z,70.64
2017-07-30T07:01:34.625Z,69.86
2017-07-30T07:02:39.579Z,69.50
2017-07-30T07:03:45.226Z,69.32
2017-07-30T07:04:50.151Z,68.02
2017-07-30T07:05:55.157Z,67.99
2017-07-30T07:07:00.105Z,67.89
2017-07-30T07:08:05.018Z,67.99
2017-07-30T07:09:09.947Z,67.32
2017-07-30T07:10:14.866Z,67.34
2017-07-30T07:11:19.830Z,66.80
2017-07-30T07:12:24.738Z,66.38
2017-07-30T07:13:29.778Z,66.02
2017-07-30T07:14:34.700Z,66.31
2017-07-30T07:15:39.645Z,65.74
2017-07-30T07:16:44.649Z,65.88
2017-07-30T07:17:49.592Z,66.04
2017-07-30T07:18:54.539Z,65.90
2017-07-30T07:20:01.853Z,65.64
2017-07-30T07:21:06.791Z,65.21
2017-07-30T07:22:11.757Z,64.96
2017-07-30T07:23:16.677Z,64.29
2017-07-30T07:24:21.607Z,63.39
2017-07-30T07:25:26.561Z,62.92
2017-07-30T07:26:31.506Z,62.71
2017-07-30T07:27:36.455Z,62.74
2017-07-30T07:28:41.374Z,62.56
2017-07-30T07:29:46.342Z,61.52
2017-07-30T07:30:51.262Z,60.90
2017-07-30T07:31:56.181Z,60.32
2017-07-30T07:33:01.142Z,60.05
2017-07-30T07:34:06.070Z,59.55
2017-07-30T07:35:11.008Z,59.63
2017-07-30T07:36:15.919Z,59.63
2017-07-30T07:37:20.839Z,59.09
2017-07-30T07:38:25.801Z,58.66
2017-07-30T07:39:30.733Z,58.65
2017-07-30T07:40:35.666Z,58.76
2017-07-30T07:41:40.571Z,58.28
2017-07-30T07:42:45.493Z,58.61
2017-07-30T07:43:50.460Z,58.17
2017-07-30T07:44:55.385Z,58.13
2017-07-30T07:46:00.316Z,58.11
2017-07-30T07:47:05.284Z,56.84
2017-07-30T07:48:10.206Z,56.74
2017-07-30T07:49:15.171Z,56.73
2017-07-30T07:50:20.129Z,56.61
2017-07-30T07:51:24.780Z,56.84
2017-07-30T07:52:29.491Z,56.22
2017-07-30T07:53:34.435Z,56.77
2017-07-30T07:54:39.370Z,57.02
2017-07-30T07:55:44.036Z,57.52
2017-07-30T07:56:48.970Z,57.58
2017-07-30T07:57:53.911Z,57.40
2017-07-30T07:58:58.549Z,57.21
2017-07-30T08:00:03.327Z,55.88
2017-07-30T08:01:08.249Z,55.86
2017-07-30T08:02:13.169Z,55.79
2017-07-30T08:03:17.477Z,55.89
2017-07-30T08:04:22.410Z,55.47
2017-07-30T08:05:27.385Z,55.12
2017-07-30T08:06:32.304Z,54.77
2017-07-30T08:07:37.282Z,54.67
2017-07-30T08:08:41.921Z,54.43
2017-07-30T08:09:46.894Z,54.06
2017-07-30T08:10:52.008Z,54.17
2017-07-30T08:11:56.931Z,54.10
2017-07-30T08:13:03.003Z,54.51
2017-07-30T08:14:07.638Z,54.58
2017-07-30T08:15:12.273Z,53.86
2017-07-30T08:16:16.990Z,54.15
2017-07-30T08:17:21.614Z,54.09
2017-07-30T08:18:26.261Z,54.21
2017-07-30T08:19:30.900Z,53.74
2017-07-30T08:20:35.533Z,53.64
2017-07-30T08:21:40.498Z,53.27
2017-07-30T08:22:45.142Z,53.14
2017-07-30T08:23:50.906Z,53.10
2017-07-30T08:24:55.884Z,53.32
2017-07-30T08:26:00.518Z,53.54
2017-07-30T08:27:05.195Z,53.23
2017-07-30T08:28:09.832Z,53.43
2017-07-30T08:29:14.466Z,53.19
2017-07-30T08:30:19.104Z,53.41
2017-07-30T08:31:23.738Z,53.13
2017-07-30T08:32:29.214Z,52.80
2017-07-30T08:33:33.849Z,52.75
2017-07-30T08:34:38.487Z,52.52
2017-07-30T08:35:43.114Z,52.38
2017-07-30T08:36:47.741Z,52.55
2017-07-30T08:37:52.410Z,52.21
2017-07-30T08:38:57.048Z,52.37
2017-07-30T08:40:01.673Z,52.71
2017-07-30T08:41:06.302Z,52.20
2017-07-30T08:42:10.931Z,52.39
2017-07-30T08:43:15.599Z,52.23
2017-07-30T08:44:20.221Z,52.76
2017-07-30T08:45:24.848Z,52.80
2017-07-30T08:46:30.688Z,53.02
2017-07-30T08:47:35.336Z,53.22
2017-07-30T08:48:40.017Z,53.27
2017-07-30T08:49:44.674Z,54.01
2017-07-30T08:50:49.298Z,54.35
2017-07-30T08:51:53.923Z,54.16
2017-07-30T08:52:58.571Z,54.13
2017-07-30T08:54:03.219Z,53.77
2017-07-30T08:55:07.866Z,53.34
2017-07-30T08:56:12.516Z,52.84
2017-07-30T08:57:17.163Z,52.80
2017-07-30T08:58:21.782Z,52.25
2017-07-30T08:59:26.440Z,52.16
2017-07-30T09:00:31.170Z,52.44
2017-07-30T09:01:35.806Z,52.81
2017-07-30T09:02:40.433Z,52.56
2017-07-30T09:03:45.063Z,52.67
2017-07-30T09:04:49.741Z,52.61
2017-07-30T09:05:54.375Z,52.66
2017-07-30T09:07:00.412Z,53.05
2017-07-30T09:08:06.907Z,53.09
2017-07-30T09:09:11.591Z,52.98
2017-07-30T09:10:16.265Z,53.11
2017-07-30T09:11:20.909Z,53.11
2017-07-30T09:12:25.202Z,53.00
2017-07-30T09:13:29.913Z,53.10
2017-07-30T09:14:34.582Z,53.23
2017-07-30T09:15:39.445Z,53.29
2017-07-30T09:16:44.118Z,53.39
2017-07-30T09:17:48.742Z,53.50
2017-07-30T09:18:53.376Z,53.54
2017-07-30T09:19:58.030Z,53.12
2017-07-30T09:21:02.703Z,53.59
2017-07-30T09:22:07.390Z,53.07
2017-07-30T09:23:12.325Z,52.86
2017-07-30T09:24:16.972Z,52.28
2017-07-30T09:25:22.340Z,52.76
2017-07-30T09:26:27.252Z,52.86
2017-07-30T09:27:31.950Z,53.06
2017-07-30T09:28:36.634Z,52.96
2017-07-30T09:29:41.301Z,52.61
2017-07-30T09:30:45.943Z,52.11
2017-07-30T09:31:50.650Z,52.02
2017-07-30T09:32:55.322Z,51.80
2017-07-30T09:33:59.980Z,51.81
2017-07-30T09:35:04.635Z,51.69
2017-07-30T09:36:09.261Z,51.48
2017-07-30T09:37:13.922Z,51.48
2017-07-30T09:38:18.569Z,51.50
2017-07-30T09:39:22.849Z,51.14
2017-07-30T09:40:27.549Z,50.98
2017-07-30T09:41:32.180Z,50.73
2017-07-30T09:42:36.845Z,50.23
2017-07-30T09:43:41.469Z,50.00
2017-07-30T09:44:46.103Z,49.94
2017-07-30T09:45:50.732Z,49.42
2017-07-30T09:46:55.358Z,49.80
2017-07-30T09:48:00.036Z,49.48
2017-07-30T09:49:04.675Z,49.72
2017-07-30T09:50:09.313Z,49.28
2017-07-30T09:51:13.936Z,49.41
2017-07-30T09:52:18.569Z,49.76
2017-07-30T09:53:23.222Z,49.54
2017-07-30T09:54:33.870Z,49.46
2017-07-30T09:55:38.512Z,48.80
2017-07-30T09:56:42.817Z,47.96
2017-07-30T09:57:47.774Z,47.67
2017-07-30T09:58:52.437Z,47.14
2017-07-30T09:59:57.082Z,46.95
2017-07-30T10:01:01.789Z,47.43
2017-07-30T10:02:06.443Z,47.59
2017-07-30T10:03:11.075Z,47.15
2017-07-30T10:04:15.788Z,47.19
2017-07-30T10:05:20.418Z,47.96
2017-07-30T10:06:25.038Z,48.03
2017-07-30T10:07:29.665Z,48.02
2017-07-30T10:08:34.293Z,47.96
2017-07-30T10:09:39.057Z,48.00
2017-07-30T10:10:43.684Z,48.14
2017-07-30T10:11:48.310Z,48.16
2017-07-30T10:12:52.958Z,47.77
2017-07-30T10:14:01.530Z,47.29
2017-07-30T10:15:06.223Z,47.33
2017-07-30T10:16:10.859Z,47.13
2017-07-30T10:17:15.504Z,47.01
2017-07-30T10:18:20.134Z,47.27
2017-07-30T10:19:24.783Z,47.74
2017-07-30T10:20:29.434Z,47.65
2017-07-30T10:21:34.078Z,48.10
2017-07-30T10:22:38.796Z,47.96
2017-07-30T10:23:43.455Z,48.35
2017-07-30T10:24:48.092Z,48.32
2017-07-30T10:25:52.771Z,48.46
2017-07-30T10:26:57.416Z,48.01
2017-07-30T10:28:02.041Z,47.78
2017-07-30T10:29:06.690Z,47.19
2017-07-30T10:30:11.330Z,47.27
2017-07-30T10:31:16.013Z,46.94
2017-07-30T10:32:20.647Z,47.05
2017-07-30T10:33:25.276Z,47.24
2017-07-30T10:34:29.912Z,46.98
2017-07-30T10:35:34.556Z,46.92
2017-07-30T10:36:39.321Z,47.13
2017-07-30T10:37:43.953Z,46.75
2017-07-30T10:38:48.638Z,46.95
2017-07-30T10:39:53.283Z,46.27
2017-07-30T10:40:57.907Z,46.45
2017-07-30T10:42:02.602Z,46.50
2017-07-30T10:43:07.228Z,46.47
2017-07-30T10:44:11.875Z,46.41
2017-07-30T10:45:16.501Z,46.20
2017-07-30T10:46:21.163Z,45.50
2017-07-30T10:47:25.846Z,45.77
2017-07-30T10:48:30.482Z,45.55
2017-07-30T10:49:35.134Z,45.62
2017-07-30T10:50:39.842Z,44.85
2017-07-30T10:51:44.473Z,44.96
2017-07-30T10:52:49.236Z,45.59
2017-07-30T10:53:53.908Z,45.69
2017-07-30T10:54:58.538Z,45.92
2017-07-30T10:56:03.174Z,45.86
2017-07-30T10:57:07.818Z,46.15
2017-07-30T10:58:12.091Z,46.32
2017-07-30T10:59:16.735Z,45.62
2017-07-30T11:00:21.382Z,45.76
2017-07-30T11:01:26.031Z,45.47
2017-07-30T11:02:30.743Z,45.34
2017-07-30T11:03:35.430Z,44.88
2017-07-30T11:04:40.950Z,43.78
2017-07-30T11:05:46.433Z,43.39
2017-07-30T11:06:51.149Z,42.83
2017-07-30T11:07:55.821Z,42.66
2017-07-30T11:09:00.516Z,42.37
2017-07-30T11:10:05.150Z,42.30
2017-07-30T11:11:09.816Z,42.09
2017-07-30T11:12:14.442Z,42.18
2017-07-30T11:13:19.062Z,42.06
2017-07-30T11:14:23.733Z,41.45
2017-07-30T11:15:28.369Z,41.73
2017-07-30T11:16:32.997Z,41.53
2017-07-30T11:17:37.662Z,41.43
2017-07-30T11:18:42.285Z,41.27
2017-07-30T11:19:46.942Z,40.81
2017-07-30T11:20:51.568Z,40.77
2017-07-30T11:21:56.214Z,41.21
2017-07-30T11:23:00.875Z,40.81
2017-07-30T11:24:05.533Z,40.86
2017-07-30T11:25:10.178Z,40.97
2017-07-30T11:26:14.808Z,41.04
2017-07-30T11:27:19.441Z,41.70
2017-07-30T11:28:24.074Z,41.93
2017-07-30T11:29:28.734Z,41.63
2017-07-30T11:30:33.405Z,41.55
2017-07-30T11:31:38.043Z,40.61
2017-07-30T11:32:42.684Z,40.43
2017-07-30T11:33:47.326Z,40.50
2017-07-30T11:34:51.970Z,40.45
2017-07-30T11:35:56.639Z,40.65
2017-07-30T11:37:01.282Z,40.52
2017-07-30T11:38:05.923Z,40.61
2017-07-30T11:39:10.564Z,40.74
2017-07-30T11:40:15.197Z,41.01
2017-07-30T11:41:19.862Z,40.49
2017-07-30T11:42:24.501Z,40.64
2017-07-30T11:43:29.136Z,40.93
2017-07-30T11:44:33.767Z,41.19
2017-07-30T11:45:38.389Z,41.03
2017-07-30T11:46:46.055Z,40.93
2017-07-30T11:47:50.692Z,40.24
2017-07-30T11:48:55.326Z,40.52
2017-07-30T11:49:59.954Z,40.47
2017-07-30T11:51:04.599Z,40.67
2017-07-30T11:52:09.250Z,40.64
2017-07-30T11:53:13.871Z,40.47
2017-07-30T11:54:18.502Z,40.68
2017-07-30T11:55:23.152Z,40.79
2017-07-30T11:56:27.790Z,40.91
2017-07-30T11:57:32.445Z,40.36
2017-07-30T11:58:37.069Z,40.22
2017-07-30T11:59:41.694Z,39.95
2017-07-30T12:00:46.343Z,39.38
2017-07-30T12:01:50.965Z,38.77
2017-07-30T12:02:55.642Z,38.46
2017-07-30T12:04:00.270Z,38.45
2017-07-30T12:05:04.902Z,38.35
2017-07-30T12:06:09.539Z,38.80
2017-07-30T12:07:14.205Z,38.92
2017-07-30T12:08:18.503Z,39.11
2017-07-30T12:09:23.128Z,39.10
2017-07-30T12:10:27.754Z,39.30
2017-07-30T12:11:32.378Z,39.41
2017-07-30T12:12:37.017Z,39.54
2017-07-30T12:13:41.682Z,39.38
2017-07-30T12:14:46.316Z,39.43
2017-07-30T12:15:50.938Z,38.70
2017-07-30T12:16:55.573Z,39.12
2017-07-30T12:18:00.264Z,38.82
2017-07-30T12:19:04.928Z,39.14
2017-07-30T12:20:09.566Z,38.76
2017-07-30T12:21:14.193Z,38.74
2017-07-30T12:22:18.811Z,38.33
2017-07-30T12:23:23.431Z,37.63
2017-07-30T12:24:28.096Z,37.57
2017-07-30T12:25:32.731Z,37.85
2017-07-30T12:26:37.361Z,38.12
2017-07-30T12:27:41.986Z,37.94
2017-07-30T12:28:46.654Z,38.05
2017-07-30T12:29:51.324Z,38.39
2017-07-30T12:31:01.315Z,38.67
2017-07-30T12:32:05.945Z,38.24
2017-07-30T12:33:10.579Z,37.91
2017-07-30T12:34:15.222Z,38.08
2017-07-30T12:35:19.890Z,38.22
2017-07-30T12:36:24.522Z,38.31
2017-07-30T12:37:29.175Z,37.46
2017-07-30T12:38:33.801Z,37.37
2017-07-30T12:39:38.457Z,37.37
2017-07-30T12:40:43.205Z,37.83
2017-07-30T12:41:47.840Z,37.76
2017-07-30T12:42:52.468Z,37.45
2017-07-30T12:43:57.093Z,37.52
2017-07-30T12:45:01.738Z,37.25
2017-07-30T12:46:06.389Z,37.46
2017-07-30T12:47:11.035Z,37.69
2017-07-30T12:48:15.658Z,37.90
2017-07-30T12:49:20.290Z,38.23
2017-07-30T12:50:24.937Z,38.17
2017-07-30T12:51:29.585Z,38.17
2017-07-30T12:52:34.206Z,38.39
2017-07-30T12:53:38.829Z,38.13
2017-07-30T12:54:43.544Z,38.14
2017-07-30T12:55:48.180Z,38.50
2017-07-30T12:56:52.882Z,38.92
2017-07-30T12:57:57.505Z,39.08
2017-07-30T12:59:02.125Z,39.39
2017-07-30T13:00:06.745Z,39.44
2017-07-30T13:01:11.379Z,39.81
2017-07-30T13:02:16.034Z,40.22
2017-07-30T13:03:20.678Z,40.35
2017-07-30T13:04:25.316Z,40.62
2017-07-30T13:05:29.966Z,40.16
2017-07-30T13:06:34.594Z,39.89
2017-07-30T13:07:39.277Z,39.84
2017-07-30T13:08:43.980Z,40.06
2017-07-30T13:09:48.621Z,40.34
2017-07-30T13:10:53.263Z,40.90
2017-07-30T13:11:57.909Z,40.88
2017-07-30T13:13:02.569Z,40.89
2017-07-30T13:14:07.217Z,41.16
2017-07-30T13:15:11.874Z,40.61
2017-07-30T13:16:16.507Z,39.35
2017-07-30T13:17:21.137Z,38.47
2017-07-30T13:18:25.824Z,38.55
2017-07-30T13:19:30.461Z,38.45
2017-07-30T13:20:35.080Z,38.55
2017-07-30T13:21:39.717Z,38.43
2017-07-30T13:22:44.359Z,38.74
2017-07-30T13:23:49.048Z,38.43
2017-07-30T13:24:53.715Z,38.52
2017-07-30T13:25:58.346Z,38.81
2017-07-30T13:27:02.982Z,38.76
2017-07-30T13:28:07.651Z,38.47
2017-07-30T13:29:12.338Z,38.20
2017-07-30T13:30:16.966Z,37.90
2017-07-30T13:31:21.614Z,37.93
2017-07-30T13:32:26.245Z,37.80
2017-07-30T13:33:30.884Z,38.15
2017-07-30T13:34:35.914Z,38.13
2017-07-30T13:35:40.547Z,38.62
2017-07-30T13:36:45.229Z,38.69
2017-07-30T13:37:49.885Z,38.68
2017-07-30T13:38:54.510Z,38.83
2017-07-30T13:39:59.179Z,38.75
2017-07-30T13:41:03.817Z,38.94
2017-07-30T13:42:08.446Z,38.75
2017-07-30T13:43:13.091Z,38.59
2017-07-30T13:44:17.745Z,38.70
2017-07-30T13:45:22.417Z,38.71
2017-07-30T13:46:27.039Z,38.77
2017-07-30T13:47:31.690Z,38.95
2017-07-30T13:48:36.321Z,38.23
2017-07-30T13:49:40.942Z,37.78
2017-07-30T13:50:45.587Z,37.71
2017-07-30T13:51:50.226Z,37.27
2017-07-30T13:52:54.862Z,36.45
2017-07-30T13:53:59.513Z,34.67
2017-07-30T13:55:04.141Z,34.31
2017-07-30T13:56:08.842Z,34.64